KIFP/IFP METAR and TAF weather

Enter ICAO airport designator
Station Type Date Time Source
KIFP METAR 2021/05/14 14:15 UTC NOAA

KIFP 141415Z AUTO 00000KT 10SM CLR 24/M09 A2985 RMK AO2


Station Type Date Time Source
KIFP Decoded METAR 2021/05/14 14:15 UTC NOAA

Bullhead City, Laughlin/Bullhead International Airport, AZ, United States (KIFP) 35-09-27N 114-33-34W
May 14, 2021 - 10:15 AM EDT / 2021.05.14 1415 UTC
Wind: Calm:0
Visibility: 10 mile(s):0
Sky conditions: clear
Temperature: 75 F (24 C)
Dew Point: 15 F (-9 C)
Relative Humidity: 10%
Pressure (altimeter): 29.85 in. Hg (1010 hPa)
ob: KIFP 141415Z AUTO 00000KT 10SM CLR 24/M09 A2985 RMK AO2
cycle: 14

Station Type Date Time Source
KIFP TAF 2021/05/14 12:22 UTC NOAA

TAF KIFP 141120Z 1412/1512 VRB05KT P6SM SKC
FM141700 19010KT P6SM SKC
FM142100 18014G23KT P6SM SKC
FM150300 16007KT P6SM SKC

Example: see airport list